createdAt,value
2023-04-01T00:01:22.326Z,98351.41
2023-04-01T00:03:51.395Z,98350.11
2023-04-01T00:06:20.550Z,98353.56
2023-04-01T00:08:48.646Z,98353.27
2023-04-01T00:11:16.884Z,98358.19
2023-04-01T00:13:46.366Z,98354.20
2023-04-01T00:16:21.734Z,98356.66
2023-04-01T00:18:51.705Z,98359.23
2023-04-01T00:21:20.417Z,98354.35
2023-04-01T00:23:53.080Z,98350.45
2023-04-01T00:26:23.055Z,98352.05
2023-04-01T00:28:51.456Z,98348.75
2023-04-01T00:31:19.795Z,98347.12
2023-04-01T00:33:49.172Z,98344.25
2023-04-01T00:36:19.081Z,98338.90
2023-04-01T00:38:48.495Z,98334.55
2023-04-01T00:41:17.983Z,98334.27
2023-04-01T00:43:51.768Z,98338.27
2023-04-01T00:46:20.136Z,98336.03
2023-04-01T00:48:53.345Z,98337.34
2023-04-01T00:51:23.192Z,98336.17
2023-04-01T00:53:52.722Z,98335.73
2023-04-01T00:56:28.070Z,98335.76
2023-04-01T00:58:59.665Z,98339.14
2023-04-01T01:01:27.919Z,98332.69
2023-04-01T01:03:57.078Z,98330.60
2023-04-01T01:06:40.924Z,98328.41
2023-04-01T01:09:22.562Z,98329.30
2023-04-01T01:12:12.135Z,98322.85
2023-04-01T01:14:53.602Z,98328.50
2023-04-01T01:17:24.836Z,98324.61
2023-04-01T01:20:00.596Z,98327.42
2023-04-01T01:22:37.464Z,98333.42
2023-04-01T01:25:17.334Z,98333.57
2023-04-01T01:27:50.787Z,98330.29
2023-04-01T01:30:38.681Z,98331.63
2023-04-01T01:33:19.619Z,98332.12
2023-04-01T01:35:51.569Z,98331.98
2023-04-01T01:38:23.386Z,98339.00
2023-04-01T01:40:58.866Z,98343.77
2023-04-01T01:43:33.371Z,98344.30
2023-04-01T01:46:05.735Z,98350.29
2023-04-01T01:48:35.709Z,98352.98
2023-04-01T01:51:08.045Z,98353.59
2023-04-01T01:53:36.676Z,98355.36
2023-04-01T01:56:05.312Z,98361.86
2023-04-01T01:58:43.505Z,98358.01
2023-04-01T02:01:21.457Z,98360.26
2023-04-01T02:03:50.581Z,98358.38
2023-04-01T02:06:23.163Z,98360.81
2023-04-01T02:09:07.969Z,98361.80
2023-04-01T02:11:57.284Z,98361.38
2023-04-01T02:14:27.843Z,98359.77
2023-04-01T02:16:57.666Z,98356.89
2023-04-01T02:19:28.791Z,98357.59
2023-04-01T02:22:00.344Z,98350.13
2023-04-01T02:24:28.765Z,98354.64
2023-04-01T02:26:56.761Z,98353.87
2023-04-01T02:29:26.597Z,98357.80
2023-04-01T02:31:54.973Z,98357.73
2023-04-01T02:34:23.853Z,98356.08
2023-04-01T02:36:51.989Z,98348.52
2023-04-01T02:39:28.520Z,98350.25
2023-04-01T02:41:56.691Z,98350.19
2023-04-01T02:44:25.072Z,98348.63
2023-04-01T02:46:54.086Z,98347.39
2023-04-01T02:49:22.530Z,98346.73
2023-04-01T02:51:53.024Z,98348.27
2023-04-01T02:54:21.720Z,98347.70
2023-04-01T02:56:49.825Z,98348.82
2023-04-01T02:59:18.680Z,98347.73
2023-04-01T03:01:46.968Z,98349.92
2023-04-01T03:04:15.523Z,98349.98
2023-04-01T03:06:45.832Z,98355.32
2023-04-01T03:09:15.355Z,98351.07
2023-04-01T03:11:43.526Z,98353.17
2023-04-01T03:14:13.399Z,98354.09
2023-04-01T03:16:42.005Z,98347.57
2023-04-01T03:19:11.135Z,98345.83
2023-04-01T03:21:40.933Z,98341.46
2023-04-01T03:24:09.124Z,98345.13
2023-04-01T03:26:37.458Z,98344.08
2023-04-01T03:29:06.567Z,98345.48
2023-04-01T03:31:35.709Z,98351.58
2023-04-01T03:34:03.981Z,98355.70
2023-04-01T03:36:32.279Z,98351.20
2023-04-01T03:39:04.736Z,98355.44
2023-04-01T03:41:38.652Z,98359.76
2023-04-01T03:44:07.366Z,98366.01
2023-04-01T03:46:35.816Z,98363.91
2023-04-01T03:49:12.342Z,98369.17
2023-04-01T03:51:45.465Z,98373.76
2023-04-01T03:54:15.294Z,98384.65
2023-04-01T03:56:45.120Z,98379.21
2023-04-01T03:59:16.384Z,98378.36
2023-04-01T04:01:47.054Z,98375.80
2023-04-01T04:04:16.343Z,98376.08
2023-04-01T04:06:45.975Z,98376.86
2023-04-01T04:09:14.768Z,98380.39
2023-04-01T04:11:42.769Z,98388.05
2023-04-01T04:14:11.063Z,98387.02
2023-04-01T04:16:40.015Z,98392.13
2023-04-01T04:19:08.385Z,98396.39
2023-04-01T04:21:37.378Z,98401.02
2023-04-01T04:24:05.833Z,98400.52
2023-04-01T04:26:53.484Z,98405.33
2023-04-01T04:29:23.847Z,98403.41
2023-04-01T04:31:52.527Z,98399.08
2023-04-01T04:34:22.736Z,98394.50
2023-04-01T04:36:51.319Z,98394.21
2023-04-01T04:39:21.337Z,98383.68
2023-04-01T04:41:50.399Z,98383.79
2023-04-01T04:44:20.356Z,98387.84
2023-04-01T04:46:48.995Z,98389.74
2023-04-01T04:49:17.523Z,98391.73
2023-04-01T04:51:47.577Z,98386.17
2023-04-01T04:54:16.382Z,98383.68
2023-04-01T04:56:54.212Z,98388.54
2023-04-01T04:59:23.471Z,98393.80
2023-04-01T05:02:07.582Z,98391.91
2023-04-01T05:04:37.669Z,98386.30
2023-04-01T05:07:07.315Z,98386.55
2023-04-01T05:09:40.784Z,98386.23
2023-04-01T05:12:09.050Z,98375.45
2023-04-01T05:15:10.019Z,98372.90
2023-04-01T05:17:42.651Z,98372.70
2023-04-01T05:20:13.354Z,98373.83
2023-04-01T05:22:41.673Z,98372.66
2023-04-01T05:25:10.748Z,98374.41
2023-04-01T05:27:38.913Z,98375.59
2023-04-01T05:30:14.782Z,98379.92
2023-04-01T05:33:04.562Z,98379.63
2023-04-01T05:35:32.848Z,98381.06
2023-04-01T05:38:01.258Z,98380.82
2023-04-01T05:40:29.991Z,98374.52
2023-04-01T05:42:58.220Z,98380.27
2023-04-01T05:45:27.422Z,98381.14
2023-04-01T05:48:14.574Z,98384.85
2023-04-01T05:50:44.770Z,98387.44
2023-04-01T05:53:14.676Z,98395.27
2023-04-01T05:55:44.608Z,98397.30
2023-04-01T05:58:12.981Z,98397.85
2023-04-01T06:00:41.890Z,98399.05
2023-04-01T06:03:30.270Z,98392.11
2023-04-01T06:05:58.541Z,98396.08
2023-04-01T06:08:34.612Z,98395.94
2023-04-01T06:11:35.813Z,98391.59
2023-04-01T06:14:18.384Z,98407.52
2023-04-01T06:16:57.702Z,98401.48
2023-04-01T06:19:35.071Z,98405.32
2023-04-01T06:22:18.124Z,98402.47
2023-04-01T06:25:08.729Z,98400.98
2023-04-01T06:27:49.291Z,98395.52
2023-04-01T06:30:41.996Z,98390.30
2023-04-01T06:33:35.837Z,98380.25
2023-04-01T06:36:13.444Z,98381.27
2023-04-01T06:38:59.661Z,98374.45
2023-04-01T06:41:36.967Z,98375.00
2023-04-01T06:44:27.327Z,98375.23
2023-04-01T06:47:44.982Z,98371.46
2023-04-01T06:51:01.968Z,98366.11
2023-04-01T06:54:18.031Z,98360.79
2023-04-01T06:57:23.726Z,98364.39
2023-04-01T06:59:52.200Z,98371.25
2023-04-01T07:02:33.872Z,98376.66
2023-04-01T07:05:02.160Z,98374.55
2023-04-01T07:08:04.007Z,98368.30
2023-04-01T07:10:46.108Z,98369.77
2023-04-01T07:13:35.570Z,98370.36
2023-04-01T07:16:20.700Z,98365.16
2023-04-01T07:19:04.360Z,98369.48
2023-04-01T07:21:56.283Z,98375.58
2023-04-01T07:24:37.287Z,98375.02
2023-04-01T07:27:13.669Z,98373.09
2023-04-01T07:29:42.543Z,98371.50
2023-04-01T07:32:21.310Z,98372.65
2023-04-01T07:35:28.625Z,98368.27
2023-04-01T07:38:04.646Z,98368.96
2023-04-01T07:41:03.281Z,98363.70
2023-04-01T07:43:44.967Z,98358.71
2023-04-01T07:46:54.522Z,98355.95
2023-04-01T07:49:22.598Z,98356.30
2023-04-01T07:51:56.904Z,98354.27
2023-04-01T07:54:38.386Z,98352.76
2023-04-01T07:57:36.491Z,98363.02
2023-04-01T08:00:10.842Z,98366.18
2023-04-01T08:03:06.445Z,98365.90
2023-04-01T08:06:03.212Z,98369.34
2023-04-01T08:08:44.188Z,98370.33
2023-04-01T08:11:52.976Z,98374.52
2023-04-01T08:15:11.547Z,98372.39
2023-04-01T08:18:10.730Z,98376.17
2023-04-01T08:20:59.186Z,98382.56
2023-04-01T08:23:34.818Z,98386.65
2023-04-01T08:26:33.559Z,98387.19
2023-04-01T08:29:07.417Z,98390.48
2023-04-01T08:31:56.675Z,98392.58
2023-04-01T08:34:41.884Z,98395.75
2023-04-01T08:37:20.570Z,98398.94
2023-04-01T08:39:54.885Z,98397.48
2023-04-01T08:42:37.399Z,98390.09
2023-04-01T08:45:27.520Z,98388.48
2023-04-01T08:48:26.757Z,98389.40
2023-04-01T08:51:13.980Z,98386.23
2023-04-01T08:53:51.343Z,98385.36
2023-04-01T08:57:02.058Z,98385.46
2023-04-01T08:59:50.603Z,98382.95
2023-04-01T09:03:14.903Z,98390.20
2023-04-01T09:06:05.993Z,98383.27
2023-04-01T09:08:39.794Z,98381.43
2023-04-01T09:11:36.178Z,98380.41
2023-04-01T09:14:32.488Z,98375.84
2023-04-01T09:17:29.751Z,98370.73
2023-04-01T09:20:28.892Z,98370.75
2023-04-01T09:22:58.476Z,98371.35
2023-04-01T09:25:55.851Z,98369.55
2023-04-01T09:28:29.762Z,98364.39
2023-04-01T09:31:32.558Z,98366.93
2023-04-01T09:34:26.114Z,98364.62
2023-04-01T09:37:28.930Z,98362.94
2023-04-01T09:40:00.541Z,98359.23
2023-04-01T09:42:46.807Z,98358.98
2023-04-01T09:46:02.794Z,98359.77
2023-04-01T09:48:37.162Z,98358.49
2023-04-01T09:51:24.740Z,98362.20
2023-04-01T09:54:00.465Z,98359.48
2023-04-01T09:56:57.800Z,98358.36
2023-04-01T09:59:48.688Z,98359.55
2023-04-01T10:02:44.730Z,98363.98
2023-04-01T10:05:47.782Z,98362.77
2023-04-01T10:08:53.018Z,98355.92
2023-04-01T10:11:40.474Z,98342.77
2023-04-01T10:14:29.183Z,98340.42
2023-04-01T10:17:29.146Z,98342.08
2023-04-01T10:20:28.547Z,98336.42
2023-04-01T10:23:08.417Z,98334.20
2023-04-01T10:25:40.029Z,98337.84
2023-04-01T10:28:21.638Z,98335.05
2023-04-01T10:31:21.378Z,98323.46
2023-04-01T10:34:08.720Z,98326.38
2023-04-01T10:36:49.703Z,98319.85
2023-04-01T10:39:32.297Z,98327.17
2023-04-01T10:42:20.057Z,98320.46
2023-04-01T10:45:13.951Z,98318.27
2023-04-01T10:48:06.350Z,98314.35
2023-04-01T10:51:13.558Z,98318.40
2023-04-01T10:54:36.266Z,98319.19
2023-04-01T10:57:35.530Z,98318.30
2023-04-01T11:00:53.294Z,98318.70
2023-04-01T11:03:42.213Z,98314.73
2023-04-01T11:07:07.797Z,98324.81
2023-04-01T11:09:39.283Z,98325.88
2023-04-01T11:12:10.647Z,98322.71
2023-04-01T11:14:47.786Z,98320.61
2023-04-01T11:17:52.028Z,98317.80
2023-04-01T11:20:26.367Z,98316.55
2023-04-01T11:23:12.806Z,98313.20
2023-04-01T11:26:00.972Z,98309.94
2023-04-01T11:29:11.186Z,98303.08
2023-04-01T11:32:00.137Z,98298.83
2023-04-01T11:34:57.502Z,98296.66
2023-04-01T11:37:26.343Z,98287.69
2023-04-01T11:40:24.577Z,98287.77
2023-04-01T11:43:39.401Z,98284.63
2023-04-01T11:46:49.134Z,98281.73
2023-04-01T11:49:41.685Z,98277.51
2023-04-01T11:52:39.192Z,98266.70
2023-04-01T11:55:43.091Z,98264.88
2023-04-01T11:58:39.674Z,98260.23
2023-04-01T12:01:25.869Z,98254.73
2023-04-01T12:04:25.253Z,98256.69
2023-04-01T12:07:11.988Z,98252.44
2023-04-01T12:09:58.150Z,98255.31
2023-04-01T12:13:00.006Z,98252.70
2023-04-01T12:15:35.896Z,98251.97
2023-04-01T12:18:37.211Z,98253.45
2023-04-01T12:21:16.048Z,98253.12
2023-04-01T12:23:48.726Z,98251.64
2023-04-01T12:26:29.796Z,98250.23
2023-04-01T12:29:35.483Z,98248.30
2023-04-01T12:32:41.781Z,98248.92
2023-04-01T12:35:22.048Z,98250.85
2023-04-01T12:38:10.691Z,98249.07
2023-04-01T12:41:04.112Z,98254.67
2023-04-01T12:43:50.970Z,98245.95
2023-04-01T12:46:44.301Z,98245.55
2023-04-01T12:49:21.465Z,98247.73
2023-04-01T12:52:32.879Z,98248.05
2023-04-01T12:55:16.501Z,98248.14
2023-04-01T12:58:05.010Z,98243.46
2023-04-01T13:00:44.502Z,98240.34
2023-04-01T13:03:23.567Z,98239.43
2023-04-01T13:06:19.097Z,98233.96
2023-04-01T13:09:18.195Z,98234.24
2023-04-01T13:11:53.632Z,98233.34
2023-04-01T13:15:13.155Z,98234.16
2023-04-01T13:17:45.548Z,98233.59
2023-04-01T13:20:17.962Z,98229.41
2023-04-01T13:23:10.731Z,98237.48
2023-04-01T13:25:44.920Z,98232.48
2023-04-01T13:28:21.018Z,98231.61
2023-04-01T13:31:00.826Z,98228.23
2023-04-01T13:33:59.130Z,98230.51
2023-04-01T13:36:35.808Z,98226.38
2023-04-01T13:39:35.409Z,98224.21
2023-04-01T13:42:06.619Z,98230.92
2023-04-01T13:44:39.517Z,98228.80
2023-04-01T13:47:37.365Z,98229.64
2023-04-01T13:50:43.391Z,98228.73
2023-04-01T13:53:26.535Z,98234.38
2023-04-01T13:56:04.073Z,98230.67
2023-04-01T13:58:47.416Z,98231.59
2023-04-01T14:01:23.293Z,98243.52
2023-04-01T14:04:31.632Z,98237.57
2023-04-01T14:07:18.794Z,98235.64
2023-04-01T14:09:57.341Z,98234.98
2023-04-01T14:12:33.006Z,98237.03
2023-04-01T14:15:23.332Z,98232.87
2023-04-01T14:18:22.698Z,98231.92
2023-04-01T14:21:12.903Z,98229.73
2023-04-01T14:23:41.347Z,98232.48
2023-04-01T14:26:28.554Z,98228.96
2023-04-01T14:29:15.822Z,98231.73
2023-04-01T14:31:49.642Z,98226.98
2023-04-01T14:34:18.140Z,98226.39
2023-04-01T14:37:14.039Z,98231.68
2023-04-01T14:40:11.768Z,98230.91
2023-04-01T14:42:59.058Z,98239.54
2023-04-01T14:45:48.755Z,98232.90
2023-04-01T14:48:40.089Z,98236.92
2023-04-01T14:51:29.521Z,98241.00
2023-04-01T14:54:04.304Z,98238.21
2023-04-01T14:56:40.278Z,98244.90
2023-04-01T14:59:16.003Z,98244.70
2023-04-01T15:01:53.763Z,98251.10
2023-04-01T15:04:27.792Z,98250.23
2023-04-01T15:07:23.866Z,98251.14
2023-04-01T15:09:51.891Z,98257.16
2023-04-01T15:13:04.115Z,98254.59
2023-04-01T15:15:54.248Z,98254.80
2023-04-01T15:18:47.153Z,98255.11
2023-04-01T15:21:35.140Z,98255.82
2023-04-01T15:24:25.546Z,98260.25
2023-04-01T15:27:08.797Z,98263.55
2023-04-01T15:30:26.087Z,98263.27
2023-04-01T15:33:04.393Z,98271.08
2023-04-01T15:36:09.019Z,98275.84
2023-04-01T15:38:49.804Z,98287.36
2023-04-01T15:41:29.835Z,98292.30
2023-04-01T15:43:58.944Z,98294.17
2023-04-01T15:46:36.618Z,98293.58
2023-04-01T15:49:24.964Z,98292.62
2023-04-01T15:52:18.403Z,98300.54
2023-04-01T15:54:55.748Z,98304.86
2023-04-01T15:57:47.566Z,98310.10
2023-04-01T16:00:34.018Z,98313.95
2023-04-01T16:03:47.155Z,98320.20
2023-04-01T16:06:42.989Z,98322.55
2023-04-01T16:09:55.801Z,98318.27
2023-04-01T16:12:58.065Z,98326.59
2023-04-01T16:15:30.411Z,98327.38
2023-04-01T16:18:25.980Z,98330.10
2023-04-01T16:21:12.154Z,98335.58
2023-04-01T16:24:01.217Z,98334.17
2023-04-01T16:26:31.092Z,98335.23
2023-04-01T16:29:26.708Z,98344.75
2023-04-01T16:31:57.106Z,98342.70
2023-04-01T16:34:37.200Z,98347.45
2023-04-01T16:37:07.465Z,98352.41
2023-04-01T16:39:42.023Z,98358.05
2023-04-01T16:42:44.360Z,98360.75
2023-04-01T16:45:31.799Z,98362.50
2023-04-01T16:48:12.995Z,98364.29
2023-04-01T16:51:13.623Z,98363.96
2023-04-01T16:53:44.022Z,98365.21
2023-04-01T16:56:18.368Z,98367.46
2023-04-01T16:58:56.167Z,98368.99
2023-04-01T17:01:28.301Z,98375.68
2023-04-01T17:04:05.931Z,98380.38
2023-04-01T17:06:54.859Z,98390.14
2023-04-01T17:09:26.680Z,98391.02
2023-04-01T17:12:07.562Z,98391.16
2023-04-01T17:14:47.854Z,98400.80
2023-04-01T17:17:26.451Z,98399.61
2023-04-01T17:20:10.217Z,98405.19
2023-04-01T17:23:00.177Z,98407.40
2023-04-01T17:26:04.209Z,98412.27
2023-04-01T17:28:43.140Z,98419.02
2023-04-01T17:31:26.725Z,98417.65
2023-04-01T17:34:12.046Z,98414.98
2023-04-01T17:36:52.424Z,98412.42
2023-04-01T17:39:41.818Z,98413.69
2023-04-01T17:42:31.815Z,98414.52
2023-04-01T17:45:10.967Z,98415.27
2023-04-01T17:47:49.601Z,98419.25
2023-04-01T17:50:24.741Z,98417.14
2023-04-01T17:53:15.034Z,98418.22
2023-04-01T17:56:16.164Z,98418.71
2023-04-01T17:58:56.414Z,98424.27
2023-04-01T18:01:44.220Z,98425.70
2023-04-01T18:04:50.393Z,98428.55
2023-04-01T18:07:32.358Z,98433.20
2023-04-01T18:10:07.201Z,98437.66
2023-04-01T18:12:58.183Z,98442.55
2023-04-01T18:15:34.320Z,98442.41
2023-04-01T18:18:26.065Z,98442.95
2023-04-01T18:21:32.507Z,98440.06
2023-04-01T18:24:13.760Z,98441.22
2023-04-01T18:26:44.533Z,98443.45
2023-04-01T18:29:25.507Z,98441.10
2023-04-01T18:31:56.693Z,98448.84
2023-04-01T18:34:51.049Z,98446.77
2023-04-01T18:37:32.632Z,98452.11
2023-04-01T18:40:16.887Z,98455.61
2023-04-01T18:43:13.506Z,98456.83
2023-04-01T18:45:47.522Z,98456.45
2023-04-01T18:48:36.368Z,98457.30
2023-04-01T18:51:12.856Z,98454.22
2023-04-01T18:53:44.868Z,98457.59
2023-04-01T18:56:15.590Z,98459.72
2023-04-01T18:58:48.279Z,98461.52
2023-04-01T19:01:35.930Z,98463.80
2023-04-01T19:04:10.843Z,98457.98
2023-04-01T19:06:44.148Z,98457.82
2023-04-01T19:09:26.336Z,98457.89
2023-04-01T19:12:00.342Z,98458.88
2023-04-01T19:14:58.054Z,98461.20
2023-04-01T19:17:48.444Z,98462.11
2023-04-01T19:20:44.902Z,98460.55
2023-04-01T19:23:37.855Z,98463.14
2023-04-01T19:26:07.683Z,98463.27
2023-04-01T19:29:12.046Z,98460.47
2023-04-01T19:31:44.209Z,98463.59
2023-04-01T19:34:18.914Z,98461.73
2023-04-01T19:36:57.009Z,98457.41
2023-04-01T19:39:43.888Z,98457.92
2023-04-01T19:42:39.775Z,98459.11
2023-04-01T19:45:15.144Z,98461.09
2023-04-01T19:47:59.684Z,98460.75
2023-04-01T19:50:36.864Z,98463.68
2023-04-01T19:53:22.298Z,98464.01
2023-04-01T19:55:50.666Z,98465.59
2023-04-01T19:58:39.693Z,98468.85
2023-04-01T20:01:08.147Z,98465.27
2023-04-01T20:03:39.485Z,98463.73
2023-04-01T20:06:14.742Z,98467.29
2023-04-01T20:09:12.729Z,98469.33
2023-04-01T20:12:25.848Z,98467.89
2023-04-01T20:15:02.033Z,98471.67
2023-04-01T20:17:40.314Z,98469.92
2023-04-01T20:20:09.712Z,98467.64
2023-04-01T20:22:44.820Z,98473.92
2023-04-01T20:25:32.306Z,98471.70
2023-04-01T20:28:14.686Z,98466.27
2023-04-01T20:30:47.048Z,98468.39
2023-04-01T20:33:41.674Z,98469.56
2023-04-01T20:36:25.105Z,98473.71
2023-04-01T20:39:06.150Z,98471.21
2023-04-01T20:42:01.976Z,98471.75
2023-04-01T20:44:52.196Z,98472.21
2023-04-01T20:47:48.514Z,98473.55
2023-04-01T20:50:22.440Z,98477.61
2023-04-01T20:53:13.427Z,98478.50
2023-04-01T20:55:47.458Z,98479.84
2023-04-01T20:58:23.196Z,98478.02
2023-04-01T21:00:57.884Z,98474.31
2023-04-01T21:03:44.372Z,98479.23
2023-04-01T21:06:34.599Z,98481.30
2023-04-01T21:09:37.224Z,98477.17
2023-04-01T21:12:12.203Z,98479.48
2023-04-01T21:14:59.436Z,98480.35
2023-04-01T21:17:56.424Z,98475.10
2023-04-01T21:20:48.456Z,98473.73
2023-04-01T21:23:30.732Z,98475.11
2023-04-01T21:26:20.645Z,98475.03
2023-04-01T21:29:07.721Z,98477.71
2023-04-01T21:31:51.672Z,98476.95
2023-04-01T21:34:32.035Z,98474.70
2023-04-01T21:37:03.266Z,98477.19
2023-04-01T21:39:49.907Z,98478.29
2023-04-01T21:42:21.046Z,98477.41
2023-04-01T21:44:54.946Z,98474.96
2023-04-01T21:47:32.060Z,98473.75
2023-04-01T21:50:20.713Z,98474.91
2023-04-01T21:53:20.771Z,98474.66
2023-04-01T21:55:54.925Z,98471.59
2023-04-01T21:58:33.718Z,98469.98
2023-04-01T22:01:17.430Z,98469.34
2023-04-01T22:03:57.359Z,98473.27
2023-04-01T22:06:47.179Z,98472.23
2023-04-01T22:09:26.735Z,98475.39
2023-04-01T22:12:10.014Z,98480.80
2023-04-01T22:15:13.417Z,98482.21
2023-04-01T22:18:05.523Z,98486.30
2023-04-01T22:20:40.161Z,98481.03
2023-04-01T22:23:17.367Z,98482.91
2023-04-01T22:26:19.014Z,98478.61
2023-04-01T22:28:59.438Z,98475.29
2023-04-01T22:31:30.253Z,98480.42
2023-04-01T22:34:06.817Z,98477.78
2023-04-01T22:36:46.081Z,98475.30
2023-04-01T22:39:24.723Z,98475.89
2023-04-01T22:42:05.414Z,98476.38
2023-04-01T22:44:37.273Z,98473.10
2023-04-01T22:47:25.158Z,98472.55
2023-04-01T22:50:18.905Z,98472.33
2023-04-01T22:52:54.959Z,98471.90
2023-04-01T22:55:27.118Z,98468.05
2023-04-01T22:57:59.568Z,98474.80
2023-04-01T23:00:31.781Z,98477.47
2023-04-01T23:03:20.093Z,98476.13
2023-04-01T23:05:55.857Z,98475.09
2023-04-01T23:08:50.649Z,98476.89
2023-04-01T23:11:22.926Z,98479.30
2023-04-01T23:14:06.205Z,98476.95
2023-04-01T23:16:38.617Z,98479.27
2023-04-01T23:19:18.919Z,98478.12
2023-04-01T23:21:53.185Z,98478.23
2023-04-01T23:24:43.214Z,98475.13
2023-04-01T23:27:14.428Z,98477.98
2023-04-01T23:29:43.973Z,98477.08
2023-04-01T23:32:25.921Z,98477.56
2023-04-01T23:34:59.946Z,98474.95
2023-04-01T23:37:28.200Z,98474.51
2023-04-01T23:39:59.070Z,98474.91
2023-04-01T23:42:33.163Z,98475.02
2023-04-01T23:45:18.190Z,98475.30
2023-04-01T23:47:47.087Z,98473.80
2023-04-01T23:50:19.269Z,98476.12
2023-04-01T23:53:03.224Z,98479.58
2023-04-01T23:55:33.134Z,98479.64
2023-04-01T23:58:08.686Z,98476.40
